sensor_id;sensor_type;location;lat;lon;timestamp;P1;durP1;ratioP1;P2;durP2;ratioP2
13941;SDS011;7043;51.630;7.254;2023-01-01T00:01:36;23.85;;;17.08;;
13941;SDS011;7043;51.630;7.254;2023-01-01T00:04:05;19.67;;;12.45;;
13941;SDS011;7043;51.630;7.254;2023-01-01T00:06:33;19.38;;;11.98;;
13941;SDS011;7043;51.630;7.254;2023-01-01T00:08:59;16.88;;;11.43;;
13941;SDS011;7043;51.630;7.254;2023-01-01T00:11:44;16.23;;;10.40;;
13941;SDS011;7043;51.630;7.254;2023-01-01T00:14:10;12.20;;;8.43;;
13941;SDS011;7043;51.630;7.254;2023-01-01T00:16:36;15.15;;;9.90;;
13941;SDS011;7043;51.630;7.254;2023-01-01T00:19:02;15.63;;;8.05;;
13941;SDS011;7043;51.630;7.254;2023-01-01T00:21:28;16.30;;;10.60;;
13941;SDS011;7043;51.630;7.254;2023-01-01T00:23:54;15.40;;;8.35;;
13941;SDS011;7043;51.630;7.254;2023-01-01T00:26:20;15.05;;;9.63;;
13941;SDS011;7043;51.630;7.254;2023-01-01T00:28:46;14.52;;;8.20;;
13941;SDS011;7043;51.630;7.254;2023-01-01T00:31:13;18.38;;;8.43;;
13941;SDS011;7043;51.630;7.254;2023-01-01T00:33:43;11.25;;;6.75;;
13941;SDS011;7043;51.630;7.254;2023-01-01T00:36:10;16.08;;;8.90;;
13941;SDS011;7043;51.630;7.254;2023-01-01T00:38:37;11.07;;;8.00;;
13941;SDS011;7043;51.630;7.254;2023-01-01T00:41:03;13.93;;;6.45;;
13941;SDS011;7043;51.630;7.254;2023-01-01T00:43:29;12.65;;;6.80;;
13941;SDS011;7043;51.630;7.254;2023-01-01T00:45:56;13.52;;;7.50;;
13941;SDS011;7043;51.630;7.254;2023-01-01T00:48:23;13.68;;;7.20;;
13941;SDS011;7043;51.630;7.254;2023-01-01T00:50:49;12.40;;;7.97;;
13941;SDS011;7043;51.630;7.254;2023-01-01T00:53:16;17.40;;;12.52;;
13941;SDS011;7043;51.630;7.254;2023-01-01T00:55:42;17.67;;;12.57;;
13941;SDS011;7043;51.630;7.254;2023-01-01T00:58:08;20.70;;;13.13;;
13941;SDS011;7043;51.630;7.254;2023-01-01T01:00:34;17.17;;;13.02;;
13941;SDS011;7043;51.630;7.254;2023-01-01T01:03:00;20.45;;;13.20;;
13941;SDS011;7043;51.630;7.254;2023-01-01T01:05:26;18.17;;;13.20;;
13941;SDS011;7043;51.630;7.254;2023-01-01T01:07:52;21.90;;;14.45;;
13941;SDS011;7043;51.630;7.254;2023-01-01T01:10:18;19.25;;;14.55;;
13941;SDS011;7043;51.630;7.254;2023-01-01T01:12:46;19.15;;;15.52;;
13941;SDS011;7043;51.630;7.254;2023-01-01T01:15:12;19.58;;;15.90;;
13941;SDS011;7043;51.630;7.254;2023-01-01T01:17:39;18.80;;;15.98;;
13941;SDS011;7043;51.630;7.254;2023-01-01T01:20:07;18.42;;;16.42;;
13941;SDS011;7043;51.630;7.254;2023-01-01T01:22:33;20.70;;;17.08;;
13941;SDS011;7043;51.630;7.254;2023-01-01T01:24:59;22.63;;;17.27;;
13941;SDS011;7043;51.630;7.254;2023-01-01T01:27:25;25.23;;;17.02;;
13941;SDS011;7043;51.630;7.254;2023-01-01T01:29:51;23.05;;;17.23;;
13941;SDS011;7043;51.630;7.254;2023-01-01T01:32:18;19.88;;;16.48;;
13941;SDS011;7043;51.630;7.254;2023-01-01T01:34:44;20.17;;;15.63;;
13941;SDS011;7043;51.630;7.254;2023-01-01T01:37:10;17.52;;;12.27;;
13941;SDS011;7043;51.630;7.254;2023-01-01T01:39:36;17.98;;;14.43;;
13941;SDS011;7043;51.630;7.254;2023-01-01T01:42:04;15.15;;;12.95;;
13941;SDS011;7043;51.630;7.254;2023-01-01T01:49:44;18.05;;;15.32;;
13941;SDS011;7043;51.630;7.254;2023-01-01T01:52:11;18.25;;;16.30;;
13941;SDS011;7043;51.630;7.254;2023-01-01T01:54:37;16.90;;;15.07;;
13941;SDS011;7043;51.630;7.254;2023-01-01T01:57:04;18.60;;;15.15;;
13941;SDS011;7043;51.630;7.254;2023-01-01T01:59:32;14.32;;;12.82;;
13941;SDS011;7043;51.630;7.254;2023-01-01T02:02:00;15.98;;;13.43;;
13941;SDS011;7043;51.630;7.254;2023-01-01T02:04:27;13.70;;;12.30;;
13941;SDS011;7043;51.630;7.254;2023-01-01T02:06:53;13.88;;;10.65;;
13941;SDS011;7043;51.630;7.254;2023-01-01T02:09:19;12.15;;;10.80;;
13941;SDS011;7043;51.630;7.254;2023-01-01T02:11:45;13.13;;;11.00;;
13941;SDS011;7043;51.630;7.254;2023-01-01T02:14:11;11.70;;;10.15;;
13941;SDS011;7043;51.630;7.254;2023-01-01T02:19:11;14.45;;;10.05;;
13941;SDS011;7043;51.630;7.254;2023-01-01T02:21:45;11.60;;;9.35;;
13941;SDS011;7043;51.630;7.254;2023-01-01T02:27:04;10.80;;;9.07;;
13941;SDS011;7043;51.630;7.254;2023-01-01T02:29:38;9.75;;;8.43;;
13941;SDS011;7043;51.630;7.254;2023-01-01T02:32:09;9.70;;;8.70;;
13941;SDS011;7043;51.630;7.254;2023-01-01T02:34:41;10.85;;;8.38;;
13941;SDS011;7043;51.630;7.254;2023-01-01T02:37:08;14.65;;;8.52;;
13941;SDS011;7043;51.630;7.254;2023-01-01T02:39:36;10.07;;;8.23;;
13941;SDS011;7043;51.630;7.254;2023-01-01T02:42:04;9.93;;;8.10;;
13941;SDS011;7043;51.630;7.254;2023-01-01T02:44:33;10.32;;;7.43;;
13941;SDS011;7043;51.630;7.254;2023-01-01T02:47:07;9.52;;;7.38;;
13941;SDS011;7043;51.630;7.254;2023-01-01T02:49:34;9.13;;;6.63;;
13941;SDS011;7043;51.630;7.254;2023-01-01T02:52:04;9.48;;;5.85;;
13941;SDS011;7043;51.630;7.254;2023-01-01T02:54:37;8.77;;;5.75;;
13941;SDS011;7043;51.630;7.254;2023-01-01T03:02:40;6.65;;;5.40;;
13941;SDS011;7043;51.630;7.254;2023-01-01T03:08:15;4.53;;;4.13;;
13941;SDS011;7043;51.630;7.254;2023-01-01T03:10:48;5.82;;;2.70;;
13941;SDS011;7043;51.630;7.254;2023-01-01T03:13:18;6.43;;;3.00;;
13941;SDS011;7043;51.630;7.254;2023-01-01T03:20:59;4.10;;;2.40;;
13941;SDS011;7043;51.630;7.254;2023-01-01T03:23:35;4.43;;;2.30;;
13941;SDS011;7043;51.630;7.254;2023-01-01T03:26:04;5.18;;;2.30;;
13941;SDS011;7043;51.630;7.254;2023-01-01T03:28:32;4.55;;;2.10;;
13941;SDS011;7043;51.630;7.254;2023-01-01T03:31:00;3.35;;;1.75;;
13941;SDS011;7043;51.630;7.254;2023-01-01T03:36:03;4.97;;;2.10;;
13941;SDS011;7043;51.630;7.254;2023-01-01T03:38:33;3.25;;;1.80;;
13941;SDS011;7043;51.630;7.254;2023-01-01T03:41:01;2.42;;;1.60;;
13941;SDS011;7043;51.630;7.254;2023-01-01T03:45:57;4.82;;;2.08;;
13941;SDS011;7043;51.630;7.254;2023-01-01T03:48:23;4.97;;;1.95;;
13941;SDS011;7043;51.630;7.254;2023-01-01T03:50:56;2.97;;;1.30;;
13941;SDS011;7043;51.630;7.254;2023-01-01T03:53:44;7.47;;;2.38;;
13941;SDS011;7043;51.630;7.254;2023-01-01T03:58:40;4.72;;;2.10;;
13941;SDS011;7043;51.630;7.254;2023-01-01T04:01:09;2.95;;;1.48;;
13941;SDS011;7043;51.630;7.254;2023-01-01T04:03:36;3.38;;;1.90;;
13941;SDS011;7043;51.630;7.254;2023-01-01T04:06:02;3.33;;;1.25;;
13941;SDS011;7043;51.630;7.254;2023-01-01T04:08:30;6.07;;;1.80;;
13941;SDS011;7043;51.630;7.254;2023-01-01T04:10:56;3.95;;;1.40;;
13941;SDS011;7043;51.630;7.254;2023-01-01T04:13:24;3.65;;;1.60;;
13941;SDS011;7043;51.630;7.254;2023-01-01T04:15:50;4.07;;;1.67;;
13941;SDS011;7043;51.630;7.254;2023-01-01T04:18:16;5.40;;;1.70;;
13941;SDS011;7043;51.630;7.254;2023-01-01T04:20:42;4.82;;;1.67;;
13941;SDS011;7043;51.630;7.254;2023-01-01T04:23:08;3.97;;;1.55;;
13941;SDS011;7043;51.630;7.254;2023-01-01T04:25:34;2.83;;;1.40;;
13941;SDS011;7043;51.630;7.254;2023-01-01T04:28:00;3.85;;;1.42;;
13941;SDS011;7043;51.630;7.254;2023-01-01T04:30:27;3.90;;;1.63;;
13941;SDS011;7043;51.630;7.254;2023-01-01T04:32:54;3.55;;;1.88;;
13941;SDS011;7043;51.630;7.254;2023-01-01T04:35:20;3.67;;;1.67;;
13941;SDS011;7043;51.630;7.254;2023-01-01T04:37:46;3.25;;;1.35;;
13941;SDS011;7043;51.630;7.254;2023-01-01T04:40:12;5.78;;;1.50;;
13941;SDS011;7043;51.630;7.254;2023-01-01T04:42:39;2.85;;;1.50;;
13941;SDS011;7043;51.630;7.254;2023-01-01T04:45:05;3.50;;;1.42;;
13941;SDS011;7043;51.630;7.254;2023-01-01T04:47:31;2.95;;;1.70;;
13941;SDS011;7043;51.630;7.254;2023-01-01T04:49:58;3.25;;;1.60;;
13941;SDS011;7043;51.630;7.254;2023-01-01T04:52:24;5.90;;;1.52;;
13941;SDS011;7043;51.630;7.254;2023-01-01T04:54:50;4.97;;;1.60;;
13941;SDS011;7043;51.630;7.254;2023-01-01T04:57:16;5.03;;;1.98;;
13941;SDS011;7043;51.630;7.254;2023-01-01T04:59:42;3.20;;;1.85;;
13941;SDS011;7043;51.630;7.254;2023-01-01T05:02:08;5.60;;;1.67;;
13941;SDS011;7043;51.630;7.254;2023-01-01T05:04:34;5.03;;;1.80;;
13941;SDS011;7043;51.630;7.254;2023-01-01T05:07:00;3.40;;;1.75;;
13941;SDS011;7043;51.630;7.254;2023-01-01T05:09:26;6.53;;;2.00;;
13941;SDS011;7043;51.630;7.254;2023-01-01T05:11:53;3.03;;;1.40;;
13941;SDS011;7043;51.630;7.254;2023-01-01T05:14:20;4.18;;;2.15;;
13941;SDS011;7043;51.630;7.254;2023-01-01T05:16:46;4.72;;;1.95;;
13941;SDS011;7043;51.630;7.254;2023-01-01T05:19:12;3.63;;;1.93;;
13941;SDS011;7043;51.630;7.254;2023-01-01T05:21:39;5.70;;;2.00;;
13941;SDS011;7043;51.630;7.254;2023-01-01T05:24:06;5.82;;;1.90;;
13941;SDS011;7043;51.630;7.254;2023-01-01T05:26:34;3.90;;;1.85;;
13941;SDS011;7043;51.630;7.254;2023-01-01T05:29:00;6.50;;;1.92;;
13941;SDS011;7043;51.630;7.254;2023-01-01T05:31:27;5.75;;;1.70;;
13941;SDS011;7043;51.630;7.254;2023-01-01T05:33:54;3.00;;;2.00;;
13941;SDS011;7043;51.630;7.254;2023-01-01T05:36:22;6.47;;;1.90;;
13941;SDS011;7043;51.630;7.254;2023-01-01T05:38:49;4.95;;;2.03;;
13941;SDS011;7043;51.630;7.254;2023-01-01T05:41:15;4.97;;;1.80;;
13941;SDS011;7043;51.630;7.254;2023-01-01T05:43:41;2.63;;;1.63;;
13941;SDS011;7043;51.630;7.254;2023-01-01T05:46:14;4.38;;;1.80;;
13941;SDS011;7043;51.630;7.254;2023-01-01T05:48:41;5.05;;;1.80;;
13941;SDS011;7043;51.630;7.254;2023-01-01T05:51:09;3.80;;;1.67;;
13941;SDS011;7043;51.630;7.254;2023-01-01T05:53:35;7.57;;;3.35;;
13941;SDS011;7043;51.630;7.254;2023-01-01T05:56:02;4.20;;;2.40;;
13941;SDS011;7043;51.630;7.254;2023-01-01T05:58:28;4.28;;;1.83;;
13941;SDS011;7043;51.630;7.254;2023-01-01T06:00:55;4.18;;;1.80;;
13941;SDS011;7043;51.630;7.254;2023-01-01T06:03:21;5.32;;;1.67;;
13941;SDS011;7043;51.630;7.254;2023-01-01T06:05:47;3.08;;;1.48;;
13941;SDS011;7043;51.630;7.254;2023-01-01T06:08:13;6.35;;;1.95;;
13941;SDS011;7043;51.630;7.254;2023-01-01T06:10:39;4.43;;;1.35;;
13941;SDS011;7043;51.630;7.254;2023-01-01T06:13:05;3.35;;;1.42;;
13941;SDS011;7043;51.630;7.254;2023-01-01T06:15:31;3.20;;;1.70;;
13941;SDS011;7043;51.630;7.254;2023-01-01T06:17:58;3.63;;;1.67;;
13941;SDS011;7043;51.630;7.254;2023-01-01T06:20:24;2.55;;;1.65;;
13941;SDS011;7043;51.630;7.254;2023-01-01T06:22:50;4.85;;;1.73;;
13941;SDS011;7043;51.630;7.254;2023-01-01T06:25:16;3.80;;;1.73;;
13941;SDS011;7043;51.630;7.254;2023-01-01T06:27:42;4.15;;;1.65;;
13941;SDS011;7043;51.630;7.254;2023-01-01T06:30:08;3.87;;;1.67;;
13941;SDS011;7043;51.630;7.254;2023-01-01T06:32:34;5.13;;;1.80;;
13941;SDS011;7043;51.630;7.254;2023-01-01T06:35:00;4.85;;;1.88;;
13941;SDS011;7043;51.630;7.254;2023-01-01T06:37:29;5.85;;;1.90;;
13941;SDS011;7043;51.630;7.254;2023-01-01T06:39:55;4.05;;;1.50;;
13941;SDS011;7043;51.630;7.254;2023-01-01T06:42:21;3.20;;;1.60;;
13941;SDS011;7043;51.630;7.254;2023-01-01T06:44:47;3.92;;;1.88;;
13941;SDS011;7043;51.630;7.254;2023-01-01T06:47:12;5.13;;;1.60;;
13941;SDS011;7043;51.630;7.254;2023-01-01T06:49:38;5.00;;;1.50;;
13941;SDS011;7043;51.630;7.254;2023-01-01T06:52:04;3.63;;;1.52;;
13941;SDS011;7043;51.630;7.254;2023-01-01T06:54:30;4.90;;;1.60;;
13941;SDS011;7043;51.630;7.254;2023-01-01T06:56:56;3.80;;;1.52;;
13941;SDS011;7043;51.630;7.254;2023-01-01T06:59:22;4.53;;;1.50;;
13941;SDS011;7043;51.630;7.254;2023-01-01T07:04:20;5.07;;;1.98;;
13941;SDS011;7043;51.630;7.254;2023-01-01T07:06:46;5.85;;;1.60;;
13941;SDS011;7043;51.630;7.254;2023-01-01T07:09:12;4.28;;;1.55;;
13941;SDS011;7043;51.630;7.254;2023-01-01T07:11:38;3.65;;;2.08;;
13941;SDS011;7043;51.630;7.254;2023-01-01T07:14:04;3.35;;;1.38;;
13941;SDS011;7043;51.630;7.254;2023-01-01T07:16:30;3.88;;;1.58;;
13941;SDS011;7043;51.630;7.254;2023-01-01T07:18:56;3.97;;;1.80;;
13941;SDS011;7043;51.630;7.254;2023-01-01T07:21:32;5.95;;;2.22;;
13941;SDS011;7043;51.630;7.254;2023-01-01T07:23:59;3.03;;;1.50;;
13941;SDS011;7043;51.630;7.254;2023-01-01T07:26:26;4.88;;;1.88;;
13941;SDS011;7043;51.630;7.254;2023-01-01T07:28:52;2.20;;;1.30;;
13941;SDS011;7043;51.630;7.254;2023-01-01T07:31:19;3.83;;;1.75;;
13941;SDS011;7043;51.630;7.254;2023-01-01T07:33:45;3.67;;;1.50;;
13941;SDS011;7043;51.630;7.254;2023-01-01T07:36:11;4.43;;;1.60;;
13941;SDS011;7043;51.630;7.254;2023-01-01T07:38:37;7.15;;;2.05;;
13941;SDS011;7043;51.630;7.254;2023-01-01T07:41:03;5.10;;;1.70;;
13941;SDS011;7043;51.630;7.254;2023-01-01T07:43:29;3.88;;;2.00;;
13941;SDS011;7043;51.630;7.254;2023-01-01T07:45:56;3.90;;;1.50;;
13941;SDS011;7043;51.630;7.254;2023-01-01T07:48:22;3.90;;;1.70;;
13941;SDS011;7043;51.630;7.254;2023-01-01T07:50:49;4.13;;;2.00;;
13941;SDS011;7043;51.630;7.254;2023-01-01T07:53:15;5.17;;;1.90;;
13941;SDS011;7043;51.630;7.254;2023-01-01T07:55:41;3.87;;;1.90;;
13941;SDS011;7043;51.630;7.254;2023-01-01T07:58:09;5.68;;;1.90;;
13941;SDS011;7043;51.630;7.254;2023-01-01T08:00:36;3.70;;;1.67;;
13941;SDS011;7043;51.630;7.254;2023-01-01T08:03:02;4.13;;;1.77;;
13941;SDS011;7043;51.630;7.254;2023-01-01T08:05:28;5.80;;;1.90;;
13941;SDS011;7043;51.630;7.254;2023-01-01T08:07:54;4.10;;;1.87;;
13941;SDS011;7043;51.630;7.254;2023-01-01T08:10:20;4.53;;;2.10;;
13941;SDS011;7043;51.630;7.254;2023-01-01T08:12:46;5.80;;;1.87;;
13941;SDS011;7043;51.630;7.254;2023-01-01T08:15:13;4.70;;;1.93;;
13941;SDS011;7043;51.630;7.254;2023-01-01T08:17:39;6.73;;;2.20;;
13941;SDS011;7043;51.630;7.254;2023-01-01T08:20:05;6.67;;;1.70;;
13941;SDS011;7043;51.630;7.254;2023-01-01T08:22:31;5.30;;;2.03;;
13941;SDS011;7043;51.630;7.254;2023-01-01T08:24:58;6.50;;;2.27;;
13941;SDS011;7043;51.630;7.254;2023-01-01T08:27:24;4.43;;;2.10;;
13941;SDS011;7043;51.630;7.254;2023-01-01T08:29:50;6.63;;;2.50;;
13941;SDS011;7043;51.630;7.254;2023-01-01T08:32:16;3.97;;;2.20;;
13941;SDS011;7043;51.630;7.254;2023-01-01T08:34:42;6.33;;;2.17;;
13941;SDS011;7043;51.630;7.254;2023-01-01T08:37:14;5.20;;;1.90;;
13941;SDS011;7043;51.630;7.254;2023-01-01T08:39:40;3.40;;;1.65;;
13941;SDS011;7043;51.630;7.254;2023-01-01T08:42:06;5.43;;;2.10;;
13941;SDS011;7043;51.630;7.254;2023-01-01T08:44:32;5.93;;;2.60;;
13941;SDS011;7043;51.630;7.254;2023-01-01T08:46:58;6.20;;;1.93;;
13941;SDS011;7043;51.630;7.254;2023-01-01T08:49:24;5.17;;;1.93;;
13941;SDS011;7043;51.630;7.254;2023-01-01T08:51:49;5.23;;;2.30;;
13941;SDS011;7043;51.630;7.254;2023-01-01T08:54:15;4.60;;;1.90;;
13941;SDS011;7043;51.630;7.254;2023-01-01T08:56:41;5.57;;;1.90;;
13941;SDS011;7043;51.630;7.254;2023-01-01T08:59:07;5.03;;;2.47;;
13941;SDS011;7043;51.630;7.254;2023-01-01T09:01:33;3.47;;;2.33;;
13941;SDS011;7043;51.630;7.254;2023-01-01T09:03:59;5.27;;;2.00;;
13941;SDS011;7043;51.630;7.254;2023-01-01T09:06:25;5.50;;;1.97;;
13941;SDS011;7043;51.630;7.254;2023-01-01T09:08:51;6.07;;;2.30;;
13941;SDS011;7043;51.630;7.254;2023-01-01T09:13:46;5.93;;;2.20;;
13941;SDS011;7043;51.630;7.254;2023-01-01T09:16:12;6.75;;;2.10;;
13941;SDS011;7043;51.630;7.254;2023-01-01T09:18:38;4.53;;;2.10;;
13941;SDS011;7043;51.630;7.254;2023-01-01T09:21:04;4.53;;;2.30;;
13941;SDS011;7043;51.630;7.254;2023-01-01T09:23:30;5.20;;;2.17;;
13941;SDS011;7043;51.630;7.254;2023-01-01T09:26:00;6.43;;;2.33;;
13941;SDS011;7043;51.630;7.254;2023-01-01T09:28:27;5.38;;;1.80;;
13941;SDS011;7043;51.630;7.254;2023-01-01T09:30:53;7.07;;;2.40;;
13941;SDS011;7043;51.630;7.254;2023-01-01T09:33:19;4.80;;;2.25;;
13941;SDS011;7043;51.630;7.254;2023-01-01T09:35:45;4.93;;;2.20;;
13941;SDS011;7043;51.630;7.254;2023-01-01T09:38:11;8.60;;;2.93;;
13941;SDS011;7043;51.630;7.254;2023-01-01T09:40:56;5.93;;;1.90;;
13941;SDS011;7043;51.630;7.254;2023-01-01T09:43:43;7.20;;;2.70;;
13941;SDS011;7043;51.630;7.254;2023-01-01T09:46:11;7.70;;;2.30;;
13941;SDS011;7043;51.630;7.254;2023-01-01T09:48:39;6.40;;;2.13;;
13941;SDS011;7043;51.630;7.254;2023-01-01T09:51:08;4.30;;;2.20;;
13941;SDS011;7043;51.630;7.254;2023-01-01T09:56:12;6.10;;;2.30;;
13941;SDS011;7043;51.630;7.254;2023-01-01T09:58:39;5.83;;;2.37;;
13941;SDS011;7043;51.630;7.254;2023-01-01T10:03:57;5.10;;;1.87;;
13941;SDS011;7043;51.630;7.254;2023-01-01T10:06:26;5.20;;;2.40;;
13941;SDS011;7043;51.630;7.254;2023-01-01T10:14:09;6.17;;;2.17;;
13941;SDS011;7043;51.630;7.254;2023-01-01T10:16:40;3.78;;;1.80;;
13941;SDS011;7043;51.630;7.254;2023-01-01T10:19:24;5.67;;;2.30;;
13941;SDS011;7043;51.630;7.254;2023-01-01T10:21:51;4.60;;;2.03;;
13941;SDS011;7043;51.630;7.254;2023-01-01T10:26:48;5.30;;;2.00;;
13941;SDS011;7043;51.630;7.254;2023-01-01T10:29:15;4.35;;;1.95;;
13941;SDS011;7043;51.630;7.254;2023-01-01T10:31:46;8.00;;;2.20;;
13941;SDS011;7043;51.630;7.254;2023-01-01T10:36:44;7.50;;;2.55;;
13941;SDS011;7043;51.630;7.254;2023-01-01T10:39:14;7.03;;;2.50;;
13941;SDS011;7043;51.630;7.254;2023-01-01T10:41:41;7.93;;;2.57;;
13941;SDS011;7043;51.630;7.254;2023-01-01T10:44:07;7.47;;;2.47;;
13941;SDS011;7043;51.630;7.254;2023-01-01T10:46:33;4.23;;;2.20;;
13941;SDS011;7043;51.630;7.254;2023-01-01T10:51:29;6.10;;;2.15;;
13941;SDS011;7043;51.630;7.254;2023-01-01T10:53:55;4.88;;;1.73;;
13941;SDS011;7043;51.630;7.254;2023-01-01T10:56:22;4.63;;;2.17;;
13941;SDS011;7043;51.630;7.254;2023-01-01T10:58:52;6.53;;;2.97;;
13941;SDS011;7043;51.630;7.254;2023-01-01T11:01:34;6.15;;;2.25;;
13941;SDS011;7043;51.630;7.254;2023-01-01T11:06:42;4.83;;;2.20;;
13941;SDS011;7043;51.630;7.254;2023-01-01T11:09:18;4.50;;;2.30;;
13941;SDS011;7043;51.630;7.254;2023-01-01T11:11:46;6.38;;;2.15;;
13941;SDS011;7043;51.630;7.254;2023-01-01T11:14:17;5.55;;;1.90;;
13941;SDS011;7043;51.630;7.254;2023-01-01T11:16:44;5.47;;;2.43;;
13941;SDS011;7043;51.630;7.254;2023-01-01T11:19:11;5.57;;;2.10;;
13941;SDS011;7043;51.630;7.254;2023-01-01T11:21:45;4.80;;;1.83;;
13941;SDS011;7043;51.630;7.254;2023-01-01T11:24:19;4.60;;;1.70;;
13941;SDS011;7043;51.630;7.254;2023-01-01T11:26:45;6.32;;;2.00;;
13941;SDS011;7043;51.630;7.254;2023-01-01T11:31:41;4.65;;;2.17;;
13941;SDS011;7043;51.630;7.254;2023-01-01T11:34:53;9.65;;;2.67;;
13941;SDS011;7043;51.630;7.254;2023-01-01T11:39:33;7.03;;;2.38;;
13941;SDS011;7043;51.630;7.254;2023-01-01T11:42:01;6.78;;;2.35;;
13941;SDS011;7043;51.630;7.254;2023-01-01T11:44:39;6.60;;;2.60;;
13941;SDS011;7043;51.630;7.254;2023-01-01T11:47:05;6.00;;;2.20;;
13941;SDS011;7043;51.630;7.254;2023-01-01T11:49:32;4.32;;;1.67;;
13941;SDS011;7043;51.630;7.254;2023-01-01T11:51:59;5.88;;;2.10;;
13941;SDS011;7043;51.630;7.254;2023-01-01T11:54:30;7.45;;;3.22;;
13941;SDS011;7043;51.630;7.254;2023-01-01T11:57:00;6.73;;;1.93;;
13941;SDS011;7043;51.630;7.254;2023-01-01T11:59:28;4.72;;;1.65;;
13941;SDS011;7043;51.630;7.254;2023-01-01T12:02:01;5.97;;;2.00;;
13941;SDS011;7043;51.630;7.254;2023-01-01T12:04:29;5.65;;;1.85;;
13941;SDS011;7043;51.630;7.254;2023-01-01T12:06:58;8.38;;;2.10;;
13941;SDS011;7043;51.630;7.254;2023-01-01T12:12:04;8.13;;;2.40;;
13941;SDS011;7043;51.630;7.254;2023-01-01T12:19:55;6.27;;;2.57;;
13941;SDS011;7043;51.630;7.254;2023-01-01T12:22:21;6.57;;;2.13;;
13941;SDS011;7043;51.630;7.254;2023-01-01T12:24:48;6.43;;;2.65;;
13941;SDS011;7043;51.630;7.254;2023-01-01T12:38:03;6.13;;;2.83;;
13941;SDS011;7043;51.630;7.254;2023-01-01T12:40:38;5.73;;;2.27;;
13941;SDS011;7043;51.630;7.254;2023-01-01T12:43:09;5.57;;;2.10;;
13941;SDS011;7043;51.630;7.254;2023-01-01T12:45:58;4.80;;;1.70;;
13941;SDS011;7043;51.630;7.254;2023-01-01T12:51:29;6.90;;;2.57;;
13941;SDS011;7043;51.630;7.254;2023-01-01T12:56:31;4.40;;;1.70;;
13941;SDS011;7043;51.630;7.254;2023-01-01T12:59:09;4.17;;;1.43;;
13941;SDS011;7043;51.630;7.254;2023-01-01T13:01:36;5.77;;;2.17;;
13941;SDS011;7043;51.630;7.254;2023-01-01T13:06:35;4.43;;;2.23;;
13941;SDS011;7043;51.630;7.254;2023-01-01T13:09:09;7.43;;;2.93;;
13941;SDS011;7043;51.630;7.254;2023-01-01T13:11:36;7.83;;;2.57;;
13941;SDS011;7043;51.630;7.254;2023-01-01T13:14:03;7.57;;;2.30;;
13941;SDS011;7043;51.630;7.254;2023-01-01T13:16:32;8.50;;;3.15;;
13941;SDS011;7043;51.630;7.254;2023-01-01T13:18:59;4.27;;;1.87;;
13941;SDS011;7043;51.630;7.254;2023-01-01T13:21:26;5.30;;;2.20;;
13941;SDS011;7043;51.630;7.254;2023-01-01T13:23:54;7.33;;;2.40;;
13941;SDS011;7043;51.630;7.254;2023-01-01T13:32:06;5.33;;;2.70;;
13941;SDS011;7043;51.630;7.254;2023-01-01T13:45:28;5.33;;;2.03;;
13941;SDS011;7043;51.630;7.254;2023-01-01T13:50:47;5.40;;;2.67;;
13941;SDS011;7043;51.630;7.254;2023-01-01T13:53:31;5.53;;;2.63;;
13941;SDS011;7043;51.630;7.254;2023-01-01T13:56:10;4.80;;;2.10;;
13941;SDS011;7043;51.630;7.254;2023-01-01T13:58:48;6.53;;;2.37;;
13941;SDS011;7043;51.630;7.254;2023-01-01T14:01:24;10.00;;;2.43;;
13941;SDS011;7043;51.630;7.254;2023-01-01T14:03:54;8.25;;;2.45;;
13941;SDS011;7043;51.630;7.254;2023-01-01T14:09:19;4.47;;;2.20;;
13941;SDS011;7043;51.630;7.254;2023-01-01T14:11:46;6.10;;;2.80;;
13941;SDS011;7043;51.630;7.254;2023-01-01T14:16:49;8.10;;;2.70;;
13941;SDS011;7043;51.630;7.254;2023-01-01T14:19:15;6.87;;;3.37;;
13941;SDS011;7043;51.630;7.254;2023-01-01T14:21:41;7.17;;;2.80;;
13941;SDS011;7043;51.630;7.254;2023-01-01T14:24:07;4.53;;;2.27;;
13941;SDS011;7043;51.630;7.254;2023-01-01T14:26:35;6.30;;;2.73;;
13941;SDS011;7043;51.630;7.254;2023-01-01T14:29:07;6.57;;;2.53;;
13941;SDS011;7043;51.630;7.254;2023-01-01T14:31:43;6.03;;;3.07;;
13941;SDS011;7043;51.630;7.254;2023-01-01T14:34:13;8.00;;;2.90;;
13941;SDS011;7043;51.630;7.254;2023-01-01T14:36:47;8.57;;;4.03;;
13941;SDS011;7043;51.630;7.254;2023-01-01T14:39:23;7.20;;;3.90;;
13941;SDS011;7043;51.630;7.254;2023-01-01T14:41:50;6.27;;;3.40;;
13941;SDS011;7043;51.630;7.254;2023-01-01T14:44:17;5.77;;;3.00;;
13941;SDS011;7043;51.630;7.254;2023-01-01T14:46:45;8.40;;;2.20;;
13941;SDS011;7043;51.630;7.254;2023-01-01T14:49:14;6.93;;;2.80;;
13941;SDS011;7043;51.630;7.254;2023-01-01T14:51:43;6.37;;;3.23;;
13941;SDS011;7043;51.630;7.254;2023-01-01T14:54:14;7.20;;;3.40;;
13941;SDS011;7043;51.630;7.254;2023-01-01T14:56:41;7.37;;;2.90;;
13941;SDS011;7043;51.630;7.254;2023-01-01T15:01:41;10.47;;;3.20;;
13941;SDS011;7043;51.630;7.254;2023-01-01T15:04:17;6.63;;;3.63;;
13941;SDS011;7043;51.630;7.254;2023-01-01T15:06:49;15.20;;;7.20;;
13941;SDS011;7043;51.630;7.254;2023-01-01T15:09:17;9.20;;;5.50;;
13941;SDS011;7043;51.630;7.254;2023-01-01T15:11:43;10.63;;;4.17;;
13941;SDS011;7043;51.630;7.254;2023-01-01T15:17:01;5.47;;;2.70;;
13941;SDS011;7043;51.630;7.254;2023-01-01T15:19:27;8.07;;;4.83;;
13941;SDS011;7043;51.630;7.254;2023-01-01T15:21:53;6.93;;;2.60;;
13941;SDS011;7043;51.630;7.254;2023-01-01T15:24:20;6.20;;;3.30;;
13941;SDS011;7043;51.630;7.254;2023-01-01T15:26:49;6.50;;;3.23;;
13941;SDS011;7043;51.630;7.254;2023-01-01T15:29:16;6.07;;;3.20;;
13941;SDS011;7043;51.630;7.254;2023-01-01T15:31:48;7.50;;;3.27;;
13941;SDS011;7043;51.630;7.254;2023-01-01T15:34:20;7.77;;;2.83;;
13941;SDS011;7043;51.630;7.254;2023-01-01T15:36:48;5.77;;;2.80;;
13941;SDS011;7043;51.630;7.254;2023-01-01T15:39:14;6.63;;;3.10;;
13941;SDS011;7043;51.630;7.254;2023-01-01T15:41:58;7.17;;;2.47;;
13941;SDS011;7043;51.630;7.254;2023-01-01T15:44:25;7.50;;;3.50;;
13941;SDS011;7043;51.630;7.254;2023-01-01T15:47:01;5.40;;;3.10;;
13941;SDS011;7043;51.630;7.254;2023-01-01T15:49:29;6.90;;;3.10;;
13941;SDS011;7043;51.630;7.254;2023-01-01T15:51:55;6.00;;;2.90;;
13941;SDS011;7043;51.630;7.254;2023-01-01T15:54:23;7.37;;;3.30;;
13941;SDS011;7043;51.630;7.254;2023-01-01T15:56:49;5.97;;;2.90;;
13941;SDS011;7043;51.630;7.254;2023-01-01T16:01:41;14.77;;;3.80;;
13941;SDS011;7043;51.630;7.254;2023-01-01T16:04:19;5.10;;;3.20;;
13941;SDS011;7043;51.630;7.254;2023-01-01T16:06:47;8.23;;;3.20;;
13941;SDS011;7043;51.630;7.254;2023-01-01T16:09:13;7.37;;;3.53;;
13941;SDS011;7043;51.630;7.254;2023-01-01T16:11:40;8.03;;;4.17;;
13941;SDS011;7043;51.630;7.254;2023-01-01T16:14:06;8.40;;;3.57;;
13941;SDS011;7043;51.630;7.254;2023-01-01T16:16:33;8.17;;;4.00;;
13941;SDS011;7043;51.630;7.254;2023-01-01T16:18:59;6.87;;;3.20;;
13941;SDS011;7043;51.630;7.254;2023-01-01T16:21:26;5.43;;;3.23;;
13941;SDS011;7043;51.630;7.254;2023-01-01T16:23:54;6.10;;;3.30;;
13941;SDS011;7043;51.630;7.254;2023-01-01T16:26:21;8.57;;;4.33;;
13941;SDS011;7043;51.630;7.254;2023-01-01T16:28:47;8.77;;;4.40;;
13941;SDS011;7043;51.630;7.254;2023-01-01T16:31:15;8.83;;;4.50;;
13941;SDS011;7043;51.630;7.254;2023-01-01T16:33:43;11.97;;;7.50;;
13941;SDS011;7043;51.630;7.254;2023-01-01T16:36:10;13.13;;;9.63;;
13941;SDS011;7043;51.630;7.254;2023-01-01T16:38:38;12.13;;;9.37;;
13941;SDS011;7043;51.630;7.254;2023-01-01T16:41:05;14.67;;;11.73;;
13941;SDS011;7043;51.630;7.254;2023-01-01T16:43:35;13.00;;;8.70;;
13941;SDS011;7043;51.630;7.254;2023-01-01T16:46:01;8.60;;;6.00;;
13941;SDS011;7043;51.630;7.254;2023-01-01T16:48:27;12.13;;;7.60;;
13941;SDS011;7043;51.630;7.254;2023-01-01T16:50:53;14.50;;;9.77;;
13941;SDS011;7043;51.630;7.254;2023-01-01T16:53:19;10.40;;;7.07;;
13941;SDS011;7043;51.630;7.254;2023-01-01T16:55:48;9.90;;;6.50;;
13941;SDS011;7043;51.630;7.254;2023-01-01T16:58:14;7.73;;;5.60;;
13941;SDS011;7043;51.630;7.254;2023-01-01T17:00:40;8.50;;;4.17;;
13941;SDS011;7043;51.630;7.254;2023-01-01T17:03:06;6.20;;;3.80;;
13941;SDS011;7043;51.630;7.254;2023-01-01T17:05:36;11.37;;;6.77;;